Terminal Aerodrome Forecast
Issued by NWS Duluth, MN

Home | Current Version | Previous Version | Text Only | Print | Product List | Glossary On
Versions: 1 2 3 4 5 6 7 8 9 10 11 12 13 14 15 16 17 18 19 20 21 22 23 24 25 26 27 28 29 30 31 32 33 34 35 36 37 38 39 40
000
FTUS43 KDLH 190700 AAA
TAFDLH
TAF AMD
KDLH 190743Z 1908/2006 16010KT P6SM SCT015 OVC120 WS020/20040KT
      TEMPO 1908/1912 BKN008
     FM191200 18014G22KT P6SM SCT025 OVC100
     FM191600 20015G26KT P6SM VCSH BKN025 OVC080
      TEMPO 1918/1922 4SM -TSRA BKN015CB
     FM200000 22012KT P6SM VCSH OVC012=

USA.gov is the U.S. government's official web portal to all federal, state and local government web resources and services.